sensor_id;sensor_type;location;lat;lon;timestamp;pressure;altitude;pressure_sealevel;temperature;humidity
17593;BME280;8915;51.760;14.300;2022-09-04T00:01:45;101034.44;;;13.72;100.00
17593;BME280;8915;51.760;14.300;2022-09-04T00:04:22;101040.38;;;13.77;100.00
17593;BME280;8915;51.760;14.300;2022-09-04T00:06:56;101037.75;;;13.77;100.00
17593;BME280;8915;51.760;14.300;2022-09-04T00:09:33;101047.28;;;13.80;100.00
17593;BME280;8915;51.760;14.300;2022-09-04T00:12:05;101042.81;;;13.82;100.00
17593;BME280;8915;51.760;14.300;2022-09-04T00:14:40;101052.41;;;13.83;100.00
17593;BME280;8915;51.760;14.300;2022-09-04T00:17:12;101046.31;;;13.82;100.00
17593;BME280;8915;51.760;14.300;2022-09-04T00:19:42;101046.31;;;13.82;100.00
17593;BME280;8915;51.760;14.300;2022-09-04T00:22:22;101043.75;;;13.81;100.00
17593;BME280;8915;51.760;14.300;2022-09-04T00:24:56;101057.69;;;13.81;100.00
17593;BME280;8915;51.760;14.300;2022-09-04T00:27:27;101062.09;;;13.81;100.00
17593;BME280;8915;51.760;14.300;2022-09-04T00:29:59;101061.34;;;13.77;100.00
17593;BME280;8915;51.760;14.300;2022-09-04T00:32:32;101068.38;;;13.75;100.00
17593;BME280;8915;51.760;14.300;2022-09-04T00:35:06;101077.09;;;13.76;100.00
17593;BME280;8915;51.760;14.300;2022-09-04T00:37:40;101075.47;;;13.72;100.00
17593;BME280;8915;51.760;14.300;2022-09-04T00:40:18;101079.03;;;13.71;100.00
17593;BME280;8915;51.760;14.300;2022-09-04T00:42:58;101074.66;;;13.70;100.00
17593;BME280;8915;51.760;14.300;2022-09-04T00:45:42;101073.91;;;13.66;100.00
17593;BME280;8915;51.760;14.300;2022-09-04T00:48:18;101072.25;;;13.63;100.00
17593;BME280;8915;51.760;14.300;2022-09-04T00:51:04;101075.94;;;13.58;100.00
17593;BME280;8915;51.760;14.300;2022-09-04T00:53:48;101078.59;;;13.56;100.00
17593;BME280;8915;51.760;14.300;2022-09-04T00:56:40;101083.16;;;13.50;100.00
17593;BME280;8915;51.760;14.300;2022-09-04T00:59:25;101080.69;;;13.45;100.00
17593;BME280;8915;51.760;14.300;2022-09-04T01:02:03;101088.69;;;13.40;100.00
17593;BME280;8915;51.760;14.300;2022-09-04T01:04:40;101080.16;;;13.34;100.00
17593;BME280;8915;51.760;14.300;2022-09-04T01:07:22;101085.44;;;13.31;100.00
17593;BME280;8915;51.760;14.300;2022-09-04T01:10:04;101080.47;;;13.23;100.00
17593;BME280;8915;51.760;14.300;2022-09-04T01:12:41;101086.66;;;13.19;100.00
17593;BME280;8915;51.760;14.300;2022-09-04T01:15:14;101094.63;;;13.16;100.00
17593;BME280;8915;51.760;14.300;2022-09-04T01:17:52;101085.19;;;13.10;100.00
17593;BME280;8915;51.760;14.300;2022-09-04T01:20:26;101085.34;;;13.05;100.00
17593;BME280;8915;51.760;14.300;2022-09-04T01:23:17;101088.06;;;13.01;100.00
17593;BME280;8915;51.760;14.300;2022-09-04T01:26:00;101099.53;;;12.97;100.00
17593;BME280;8915;51.760;14.300;2022-09-04T01:28:35;101094.34;;;12.95;100.00
17593;BME280;8915;51.760;14.300;2022-09-04T01:31:11;101100.50;;;12.93;100.00
17593;BME280;8915;51.760;14.300;2022-09-04T01:33:46;101104.13;;;12.88;100.00
17593;BME280;8915;51.760;14.300;2022-09-04T01:36:19;101103.31;;;12.86;100.00
17593;BME280;8915;51.760;14.300;2022-09-04T01:38:55;101102.59;;;12.81;100.00
17593;BME280;8915;51.760;14.300;2022-09-04T01:41:27;101093.88;;;12.81;100.00
17593;BME280;8915;51.760;14.300;2022-09-04T01:43:54;101099.22;;;12.76;100.00
17593;BME280;8915;51.760;14.300;2022-09-04T01:46:49;101098.50;;;12.71;100.00
17593;BME280;8915;51.760;14.300;2022-09-04T01:49:27;101096.03;;;12.66;100.00
17593;BME280;8915;51.760;14.300;2022-09-04T01:52:03;101088.34;;;12.60;100.00
17593;BME280;8915;51.760;14.300;2022-09-04T01:54:42;101081.47;;;12.56;100.00
17593;BME280;8915;51.760;14.300;2022-09-04T01:57:23;101090.25;;;12.54;100.00
17593;BME280;8915;51.760;14.300;2022-09-04T02:00:03;101085.16;;;12.49;100.00
17593;BME280;8915;51.760;14.300;2022-09-04T02:02:36;101091.28;;;12.48;100.00
17593;BME280;8915;51.760;14.300;2022-09-04T02:05:14;101090.53;;;12.43;100.00
17593;BME280;8915;51.760;14.300;2022-09-04T02:07:44;101093.22;;;12.40;100.00
17593;BME280;8915;51.760;14.300;2022-09-04T02:10:21;101093.34;;;12.37;100.00
17593;BME280;8915;51.760;14.300;2022-09-04T02:13:00;101095.22;;;12.31;100.00
17593;BME280;8915;51.760;14.300;2022-09-04T02:15:37;101083.06;;;12.29;100.00
17593;BME280;8915;51.760;14.300;2022-09-04T02:18:13;101091.94;;;12.22;100.00
17593;BME280;8915;51.760;14.300;2022-09-04T02:20:49;101082.44;;;12.19;100.00
17593;BME280;8915;51.760;14.300;2022-09-04T02:23:20;101085.97;;;12.17;100.00
17593;BME280;8915;51.760;14.300;2022-09-04T02:25:57;101087.81;;;12.13;100.00
17593;BME280;8915;51.760;14.300;2022-09-04T02:28:32;101085.28;;;12.10;100.00
17593;BME280;8915;51.760;14.300;2022-09-04T02:31:12;101095.06;;;12.02;100.00
17593;BME280;8915;51.760;14.300;2022-09-04T02:33:44;101098.72;;;11.96;100.00
17593;BME280;8915;51.760;14.300;2022-09-04T02:36:16;101099.66;;;11.92;100.00
17593;BME280;8915;51.760;14.300;2022-09-04T02:38:52;101093.66;;;11.87;100.00
17593;BME280;8915;51.760;14.300;2022-09-04T02:41:26;101099.88;;;11.81;100.00
17593;BME280;8915;51.760;14.300;2022-09-04T02:44:09;101102.53;;;11.80;100.00
17593;BME280;8915;51.760;14.300;2022-09-04T02:46:48;101093.06;;;11.75;100.00
17593;BME280;8915;51.760;14.300;2022-09-04T02:49:26;101104.41;;;11.73;100.00
17593;BME280;8915;51.760;14.300;2022-09-04T02:52:02;101101.00;;;11.71;100.00
17593;BME280;8915;51.760;14.300;2022-09-04T02:54:41;101100.16;;;11.69;100.00
17593;BME280;8915;51.760;14.300;2022-09-04T02:57:24;101113.31;;;11.64;100.00
17593;BME280;8915;51.760;14.300;2022-09-04T03:00:00;101102.09;;;11.61;100.00
17593;BME280;8915;51.760;14.300;2022-09-04T03:02:34;101101.28;;;11.59;100.00
17593;BME280;8915;51.760;14.300;2022-09-04T03:05:07;101105.72;;;11.55;100.00
17593;BME280;8915;51.760;14.300;2022-09-04T03:07:41;101096.19;;;11.54;100.00
17593;BME280;8915;51.760;14.300;2022-09-04T03:10:14;101104.00;;;11.54;100.00
17593;BME280;8915;51.760;14.300;2022-09-04T03:12:44;101102.31;;;11.51;100.00
17593;BME280;8915;51.760;14.300;2022-09-04T03:15:19;101104.03;;;11.52;100.00
17593;BME280;8915;51.760;14.300;2022-09-04T03:17:53;101108.34;;;11.53;100.00
17593;BME280;8915;51.760;14.300;2022-09-04T03:20:24;101104.06;;;11.51;100.00
17593;BME280;8915;51.760;14.300;2022-09-04T03:22:56;101096.19;;;11.52;100.00
17593;BME280;8915;51.760;14.300;2022-09-04T03:25:49;101103.22;;;11.50;100.00
17593;BME280;8915;51.760;14.300;2022-09-04T03:28:27;101100.66;;;11.47;100.00
17593;BME280;8915;51.760;14.300;2022-09-04T03:31:09;101105.03;;;11.47;100.00
17593;BME280;8915;51.760;14.300;2022-09-04T03:33:43;101108.47;;;11.49;100.00
17593;BME280;8915;51.760;14.300;2022-09-04T03:36:15;101105.91;;;11.46;100.00
17593;BME280;8915;51.760;14.300;2022-09-04T03:38:49;101106.00;;;11.41;100.00
17593;BME280;8915;51.760;14.300;2022-09-04T03:41:28;101109.53;;;11.40;100.00
17593;BME280;8915;51.760;14.300;2022-09-04T03:44:07;101116.47;;;11.40;100.00
17593;BME280;8915;51.760;14.300;2022-09-04T03:46:48;101110.53;;;11.34;100.00
17593;BME280;8915;51.760;14.300;2022-09-04T03:49:27;101110.63;;;11.30;100.00
17593;BME280;8915;51.760;14.300;2022-09-04T03:52:05;101115.00;;;11.28;100.00
17593;BME280;8915;51.760;14.300;2022-09-04T03:54:44;101111.63;;;11.24;100.00
17593;BME280;8915;51.760;14.300;2022-09-04T03:57:25;101117.75;;;11.22;100.00
17593;BME280;8915;51.760;14.300;2022-09-04T04:00:01;101115.19;;;11.18;100.00
17593;BME280;8915;51.760;14.300;2022-09-04T04:02:51;101120.50;;;11.15;100.00
17593;BME280;8915;51.760;14.300;2022-09-04T04:05:27;101124.91;;;11.12;100.00
17593;BME280;8915;51.760;14.300;2022-09-04T04:08:13;101120.59;;;11.09;100.00
17593;BME280;8915;51.760;14.300;2022-09-04T04:10:51;101115.50;;;11.05;100.00
17593;BME280;8915;51.760;14.300;2022-09-04T04:13:34;101123.41;;;11.00;100.00
17593;BME280;8915;51.760;14.300;2022-09-04T04:16:10;101129.47;;;11.01;100.00
17593;BME280;8915;51.760;14.300;2022-09-04T04:18:50;101122.56;;;10.99;100.00
17593;BME280;8915;51.760;14.300;2022-09-04T04:21:30;101133.06;;;10.95;100.00
17593;BME280;8915;51.760;14.300;2022-09-04T04:24:22;101128.81;;;10.91;100.00
17593;BME280;8915;51.760;14.300;2022-09-04T04:27:04;101134.06;;;10.89;100.00
17593;BME280;8915;51.760;14.300;2022-09-04T04:29:59;101134.09;;;10.88;100.00
17593;BME280;8915;51.760;14.300;2022-09-04T04:32:40;101134.09;;;10.88;100.00
17593;BME280;8915;51.760;14.300;2022-09-04T04:35:17;101139.31;;;10.88;100.00
17593;BME280;8915;51.760;14.300;2022-09-04T04:37:57;101141.09;;;10.86;100.00
17593;BME280;8915;51.760;14.300;2022-09-04T04:40:42;101136.75;;;10.83;100.00
17593;BME280;8915;51.760;14.300;2022-09-04T04:43:16;101133.34;;;10.81;100.00
17593;BME280;8915;51.760;14.300;2022-09-04T04:45:50;101143.75;;;10.83;100.00
17593;BME280;8915;51.760;14.300;2022-09-04T04:48:45;101141.97;;;10.85;100.00
17593;BME280;8915;51.760;14.300;2022-09-04T04:51:27;101144.53;;;10.86;100.00
17593;BME280;8915;51.760;14.300;2022-09-04T04:54:08;101150.56;;;10.90;100.00
17593;BME280;8915;51.760;14.300;2022-09-04T04:56:43;101150.53;;;10.91;100.00
17593;BME280;8915;51.760;14.300;2022-09-04T04:59:17;101156.63;;;10.90;100.00
17593;BME280;8915;51.760;14.300;2022-09-04T05:01:55;101163.56;;;10.91;100.00
17593;BME280;8915;51.760;14.300;2022-09-04T05:04:28;101169.63;;;10.93;100.00
17593;BME280;8915;51.760;14.300;2022-09-04T05:07:09;101166.13;;;10.94;100.00
17593;BME280;8915;51.760;14.300;2022-09-04T05:09:44;101168.63;;;10.99;100.00
17593;BME280;8915;51.760;14.300;2022-09-04T05:12:18;101179.06;;;11.01;100.00
17593;BME280;8915;51.760;14.300;2022-09-04T05:14:51;101181.59;;;11.04;100.00
17593;BME280;8915;51.760;14.300;2022-09-04T05:17:25;101179.81;;;11.06;100.00
17593;BME280;8915;51.760;14.300;2022-09-04T05:20:13;101178.00;;;11.11;100.00
17593;BME280;8915;51.760;14.300;2022-09-04T05:22:48;101183.13;;;11.15;100.00
17593;BME280;8915;51.760;14.300;2022-09-04T05:25:22;101183.03;;;11.18;100.00
17593;BME280;8915;51.760;14.300;2022-09-04T05:27:57;101184.72;;;11.23;100.00
17593;BME280;8915;51.760;14.300;2022-09-04T05:30:31;101188.16;;;11.25;100.00
17593;BME280;8915;51.760;14.300;2022-09-04T05:33:05;101188.94;;;11.30;100.00
17593;BME280;8915;51.760;14.300;2022-09-04T05:35:42;101193.19;;;11.34;100.00
17593;BME280;8915;51.760;14.300;2022-09-04T05:38:18;101192.25;;;11.38;100.00
17593;BME280;8915;51.760;14.300;2022-09-04T05:41:02;101197.38;;;11.43;100.00
17593;BME280;8915;51.760;14.300;2022-09-04T05:43:40;101201.59;;;11.48;100.00
17593;BME280;8915;51.760;14.300;2022-09-04T05:46:17;101212.81;;;11.53;100.00
17593;BME280;8915;51.760;14.300;2022-09-04T05:48:58;101213.56;;;11.59;100.00
17593;BME280;8915;51.760;14.300;2022-09-04T05:51:47;101220.34;;;11.67;100.00
17593;BME280;8915;51.760;14.300;2022-09-04T05:54:30;101223.69;;;11.75;100.00
17593;BME280;8915;51.760;14.300;2022-09-04T05:57:11;101224.38;;;11.84;100.00
17593;BME280;8915;51.760;14.300;2022-09-04T06:00:05;101229.47;;;11.91;100.00
17593;BME280;8915;51.760;14.300;2022-09-04T06:02:52;101231.84;;;12.01;100.00
17593;BME280;8915;51.760;14.300;2022-09-04T06:05:28;101230.78;;;12.09;100.00
17593;BME280;8915;51.760;14.300;2022-09-04T06:08:01;101234.13;;;12.16;100.00
17593;BME280;8915;51.760;14.300;2022-09-04T06:10:45;101235.63;;;12.26;100.00
17593;BME280;8915;51.760;14.300;2022-09-04T06:13:37;101231.06;;;12.35;100.00
17593;BME280;8915;51.760;14.300;2022-09-04T06:16:17;101241.34;;;12.44;100.00
17593;BME280;8915;51.760;14.300;2022-09-04T06:21:57;101247.84;;;12.63;100.00
17593;BME280;8915;51.760;14.300;2022-09-04T06:24:36;101249.34;;;12.72;100.00
17593;BME280;8915;51.760;14.300;2022-09-04T06:27:16;101254.34;;;12.81;100.00
17593;BME280;8915;51.760;14.300;2022-09-04T06:30:02;101256.75;;;12.89;100.00
17593;BME280;8915;51.760;14.300;2022-09-04T06:32:51;101260.88;;;12.99;100.00
17593;BME280;8915;51.760;14.300;2022-09-04T06:35:45;101269.31;;;13.11;100.00
17593;BME280;8915;51.760;14.300;2022-09-04T06:38:29;101273.53;;;13.16;100.00
17593;BME280;8915;51.760;14.300;2022-09-04T06:41:08;101269.75;;;13.26;100.00
17593;BME280;8915;51.760;14.300;2022-09-04T06:43:44;101279.25;;;13.32;100.00
17593;BME280;8915;51.760;14.300;2022-09-04T06:46:22;101271.19;;;13.38;100.00
17593;BME280;8915;51.760;14.300;2022-09-04T06:48:58;101266.53;;;13.50;100.00
17593;BME280;8915;51.760;14.300;2022-09-04T06:51:37;101274.06;;;13.62;100.00
17593;BME280;8915;51.760;14.300;2022-09-04T06:54:14;101267.75;;;13.68;100.00
17593;BME280;8915;51.760;14.300;2022-09-04T06:56:57;101268.41;;;13.76;100.00
17593;BME280;8915;51.760;14.300;2022-09-04T07:02:42;101260.03;;;13.93;100.00
17593;BME280;8915;51.760;14.300;2022-09-04T07:05:18;101264.78;;;14.10;100.00
17593;BME280;8915;51.760;14.300;2022-09-04T07:07:53;101274.13;;;14.18;100.00
17593;BME280;8915;51.760;14.300;2022-09-04T07:10:25;101273.84;;;14.28;100.00
17593;BME280;8915;51.760;14.300;2022-09-04T07:18:52;101273.72;;;14.61;100.00
17593;BME280;8915;51.760;14.300;2022-09-04T07:21:27;101283.81;;;14.73;100.00
17593;BME280;8915;51.760;14.300;2022-09-04T07:23:59;101292.28;;;14.81;100.00
17593;BME280;8915;51.760;14.300;2022-09-04T07:26:35;101300.97;;;14.83;100.00
17593;BME280;8915;51.760;14.300;2022-09-04T07:29:19;101308.56;;;14.91;100.00
17593;BME280;8915;51.760;14.300;2022-09-04T07:31:59;101310.97;;;14.99;100.00
17593;BME280;8915;51.760;14.300;2022-09-04T07:34:34;101316.75;;;15.08;100.00
17593;BME280;8915;51.760;14.300;2022-09-04T07:37:10;101316.22;;;15.24;100.00
17593;BME280;8915;51.760;14.300;2022-09-04T07:39:45;101320.06;;;15.39;100.00
17593;BME280;8915;51.760;14.300;2022-09-04T07:42:16;101313.53;;;15.50;100.00
17593;BME280;8915;51.760;14.300;2022-09-04T07:44:53;101309.72;;;15.59;100.00
17593;BME280;8915;51.760;14.300;2022-09-04T07:47:29;101324.25;;;15.69;100.00
17593;BME280;8915;51.760;14.300;2022-09-04T07:50:04;101332.03;;;15.73;100.00
17593;BME280;8915;51.760;14.300;2022-09-04T07:52:51;101328.25;;;15.81;100.00
17593;BME280;8915;51.760;14.300;2022-09-04T07:55:30;101334.84;;;15.92;100.00
17593;BME280;8915;51.760;14.300;2022-09-04T07:58:20;101338.06;;;16.00;100.00
17593;BME280;8915;51.760;14.300;2022-09-04T08:00:59;101337.72;;;16.09;100.00
17593;BME280;8915;51.760;14.300;2022-09-04T08:03:48;101336.38;;;16.21;100.00
17593;BME280;8915;51.760;14.300;2022-09-04T08:06:20;101335.25;;;16.28;100.00
17593;BME280;8915;51.760;14.300;2022-09-04T08:11:51;101345.13;;;16.45;100.00
17593;BME280;8915;51.760;14.300;2022-09-04T08:14:37;101349.16;;;16.54;100.00
17593;BME280;8915;51.760;14.300;2022-09-04T08:17:28;101348.72;;;16.64;100.00
17593;BME280;8915;51.760;14.300;2022-09-04T08:20:02;101342.84;;;16.80;100.00
17593;BME280;8915;51.760;14.300;2022-09-04T08:22:42;101355.56;;;16.92;100.00
17593;BME280;8915;51.760;14.300;2022-09-04T08:25:15;101354.56;;;16.95;100.00
17593;BME280;8915;51.760;14.300;2022-09-04T08:27:55;101340.88;;;17.07;100.00
17593;BME280;8915;51.760;14.300;2022-09-04T08:30:29;101351.97;;;17.15;100.00
17593;BME280;8915;51.760;14.300;2022-09-04T08:36:08;101350.38;;;17.32;97.74
17593;BME280;8915;51.760;14.300;2022-09-04T08:38:50;101348.22;;;17.41;99.13
17593;BME280;8915;51.760;14.300;2022-09-04T08:45:14;101354.97;;;17.68;96.59
17593;BME280;8915;51.760;14.300;2022-09-04T08:48:13;101352.06;;;17.74;95.67
17593;BME280;8915;51.760;14.300;2022-09-04T08:51:01;101355.06;;;17.85;96.44
17593;BME280;8915;51.760;14.300;2022-09-04T08:54:02;101355.53;;;17.95;97.44
17593;BME280;8915;51.760;14.300;2022-09-04T08:56:36;101362.19;;;18.04;93.89
17593;BME280;8915;51.760;14.300;2022-09-04T08:59:34;101361.28;;;18.05;93.65
17593;BME280;8915;51.760;14.300;2022-09-04T09:02:18;101365.53;;;18.26;93.18
17593;BME280;8915;51.760;14.300;2022-09-04T09:08:12;101379.38;;;18.31;92.33
17593;BME280;8915;51.760;14.300;2022-09-04T09:10:55;101389.66;;;18.38;89.78
17593;BME280;8915;51.760;14.300;2022-09-04T09:16:41;101386.00;;;18.59;88.49
17593;BME280;8915;51.760;14.300;2022-09-04T09:19:10;101372.44;;;18.67;90.25
17593;BME280;8915;51.760;14.300;2022-09-04T09:21:45;101368.25;;;18.80;89.51
17593;BME280;8915;51.760;14.300;2022-09-04T09:30:23;101368.94;;;19.03;88.68
17593;BME280;8915;51.760;14.300;2022-09-04T09:33:14;101366.78;;;19.11;87.70
17593;BME280;8915;51.760;14.300;2022-09-04T09:39:34;101369.19;;;19.33;85.87
17593;BME280;8915;51.760;14.300;2022-09-04T09:42:34;101368.66;;;19.44;88.20
17593;BME280;8915;51.760;14.300;2022-09-04T09:45:25;101362.03;;;19.53;88.83
17593;BME280;8915;51.760;14.300;2022-09-04T09:48:36;101359.50;;;19.67;87.13
17593;BME280;8915;51.760;14.300;2022-09-04T09:51:27;101360.59;;;19.63;81.93
17593;BME280;8915;51.760;14.300;2022-09-04T09:54:24;101356.09;;;19.65;83.40
17593;BME280;8915;51.760;14.300;2022-09-04T09:57:25;101351.50;;;19.68;81.96
17593;BME280;8915;51.760;14.300;2022-09-04T10:00:11;101354.91;;;19.88;84.72
17593;BME280;8915;51.760;14.300;2022-09-04T10:02:54;101361.66;;;19.94;81.69
17593;BME280;8915;51.760;14.300;2022-09-04T10:05:49;101356.13;;;19.98;81.74
17593;BME280;8915;51.760;14.300;2022-09-04T10:08:40;101350.91;;;19.97;79.92
17593;BME280;8915;51.760;14.300;2022-09-04T10:11:25;101348.50;;;20.08;83.49
17593;BME280;8915;51.760;14.300;2022-09-04T10:14:35;101356.53;;;20.22;80.46
17593;BME280;8915;51.760;14.300;2022-09-04T10:17:23;101357.00;;;20.31;78.61
17593;BME280;8915;51.760;14.300;2022-09-04T10:20:25;101355.53;;;20.41;80.11
17593;BME280;8915;51.760;14.300;2022-09-04T10:26:30;101355.78;;;20.68;79.32
17593;BME280;8915;51.760;14.300;2022-09-04T10:29:31;101353.81;;;20.72;79.47
17593;BME280;8915;51.760;14.300;2022-09-04T10:35:22;101350.84;;;20.62;75.44
17593;BME280;8915;51.760;14.300;2022-09-04T10:37:58;101355.78;;;20.68;75.10
17593;BME280;8915;51.760;14.300;2022-09-04T10:40:39;101351.69;;;20.78;75.31
17593;BME280;8915;51.760;14.300;2022-09-04T10:43:23;101352.53;;;20.95;75.45
17593;BME280;8915;51.760;14.300;2022-09-04T10:45:59;101351.56;;;20.96;73.95
17593;BME280;8915;51.760;14.300;2022-09-04T10:48:47;101349.06;;;20.93;74.27
17593;BME280;8915;51.760;14.300;2022-09-04T10:51:40;101357.44;;;21.01;72.33
17593;BME280;8915;51.760;14.300;2022-09-04T10:54:25;101351.06;;;21.20;75.48
17593;BME280;8915;51.760;14.300;2022-09-04T10:57:07;101352.44;;;21.41;74.71
17593;BME280;8915;51.760;14.300;2022-09-04T10:59:48;101367.00;;;21.34;69.28
17593;BME280;8915;51.760;14.300;2022-09-04T11:02:32;101364.28;;;21.35;70.61
17593;BME280;8915;51.760;14.300;2022-09-04T11:05:30;101371.19;;;21.38;69.67
17593;BME280;8915;51.760;14.300;2022-09-04T11:08:36;101373.78;;;21.54;70.10
17593;BME280;8915;51.760;14.300;2022-09-04T11:11:17;101362.91;;;21.59;69.45
17593;BME280;8915;51.760;14.300;2022-09-04T11:14:09;101371.72;;;21.59;67.50
17593;BME280;8915;51.760;14.300;2022-09-04T11:16:52;101379.75;;;21.58;65.72
17593;BME280;8915;51.760;14.300;2022-09-04T11:19:59;101365.44;;;21.46;69.85
17593;BME280;8915;51.760;14.300;2022-09-04T11:23:00;101368.88;;;21.62;68.17
17593;BME280;8915;51.760;14.300;2022-09-04T11:31:33;101372.69;;;21.87;67.73
17593;BME280;8915;51.760;14.300;2022-09-04T11:34:23;101370.59;;;21.78;66.41
17593;BME280;8915;51.760;14.300;2022-09-04T11:37:18;101377.31;;;21.83;66.58
17593;BME280;8915;51.760;14.300;2022-09-04T11:40:12;101368.09;;;22.18;67.65
17593;BME280;8915;51.760;14.300;2022-09-04T11:42:55;101374.47;;;22.29;64.29
17593;BME280;8915;51.760;14.300;2022-09-04T11:45:44;101364.78;;;22.14;65.71
17593;BME280;8915;51.760;14.300;2022-09-04T11:48:30;101357.13;;;22.09;66.68
17593;BME280;8915;51.760;14.300;2022-09-04T11:51:20;101364.31;;;22.22;65.06
17593;BME280;8915;51.760;14.300;2022-09-04T11:54:31;101366.50;;;22.29;66.07
17593;BME280;8915;51.760;14.300;2022-09-04T11:57:11;101370.38;;;22.38;66.13
17593;BME280;8915;51.760;14.300;2022-09-04T12:02:48;101363.63;;;22.47;68.29
17593;BME280;8915;51.760;14.300;2022-09-04T12:05:23;101370.66;;;22.48;63.57
17593;BME280;8915;51.760;14.300;2022-09-04T12:08:17;101365.16;;;22.37;64.74
17593;BME280;8915;51.760;14.300;2022-09-04T12:11:03;101356.84;;;22.56;64.84
17593;BME280;8915;51.760;14.300;2022-09-04T12:14:02;101360.84;;;22.76;63.36
17593;BME280;8915;51.760;14.300;2022-09-04T12:17:09;101361.75;;;22.62;62.44
17593;BME280;8915;51.760;14.300;2022-09-04T12:20:05;101352.38;;;22.56;62.18
17593;BME280;8915;51.760;14.300;2022-09-04T12:22:57;101358.44;;;22.58;61.42
17593;BME280;8915;51.760;14.300;2022-09-04T12:25:43;101353.09;;;22.73;63.46
17593;BME280;8915;51.760;14.300;2022-09-04T12:28:30;101363.31;;;22.79;61.34
17593;BME280;8915;51.760;14.300;2022-09-04T12:31:14;101355.31;;;22.66;61.74
17593;BME280;8915;51.760;14.300;2022-09-04T12:33:58;101356.59;;;22.73;61.95
17593;BME280;8915;51.760;14.300;2022-09-04T12:36:51;101363.09;;;22.69;60.99
17593;BME280;8915;51.760;14.300;2022-09-04T12:42:36;101352.84;;;22.63;59.02
17593;BME280;8915;51.760;14.300;2022-09-04T12:45:11;101353.38;;;22.68;60.59
17593;BME280;8915;51.760;14.300;2022-09-04T12:47:46;101366.97;;;22.63;60.84
17593;BME280;8915;51.760;14.300;2022-09-04T12:50:26;101360.94;;;22.74;60.19
17593;BME280;8915;51.760;14.300;2022-09-04T12:53:04;101366.00;;;22.92;58.64
17593;BME280;8915;51.760;14.300;2022-09-04T12:55:43;101351.66;;;22.94;61.47
17593;BME280;8915;51.760;14.300;2022-09-04T12:58:19;101363.25;;;22.93;59.03
17593;BME280;8915;51.760;14.300;2022-09-04T13:00:52;101358.44;;;22.85;61.03
17593;BME280;8915;51.760;14.300;2022-09-04T13:03:28;101359.00;;;22.91;58.46
17593;BME280;8915;51.760;14.300;2022-09-04T13:06:09;101353.31;;;22.82;58.34
17593;BME280;8915;51.760;14.300;2022-09-04T13:08:49;101351.13;;;23.02;58.95
17593;BME280;8915;51.760;14.300;2022-09-04T13:11:29;101359.13;;;23.02;58.11
17593;BME280;8915;51.760;14.300;2022-09-04T13:14:08;101352.84;;;23.03;58.09
17593;BME280;8915;51.760;14.300;2022-09-04T13:16:40;101358.94;;;23.05;57.07
17593;BME280;8915;51.760;14.300;2022-09-04T13:19:17;101363.66;;;22.87;56.38
17593;BME280;8915;51.760;14.300;2022-09-04T13:22:08;101350.16;;;22.90;57.63
17593;BME280;8915;51.760;14.300;2022-09-04T13:24:48;101351.75;;;22.93;57.94
17593;BME280;8915;51.760;14.300;2022-09-04T13:27:31;101345.50;;;22.94;58.17
17593;BME280;8915;51.760;14.300;2022-09-04T13:30:05;101352.16;;;22.86;57.05
17593;BME280;8915;51.760;14.300;2022-09-04T13:32:59;101354.63;;;22.90;57.53
17593;BME280;8915;51.760;14.300;2022-09-04T13:35:38;101355.38;;;22.92;57.21
17593;BME280;8915;51.760;14.300;2022-09-04T13:38:20;101350.81;;;22.94;57.31
17593;BME280;8915;51.760;14.300;2022-09-04T13:41:11;101351.34;;;22.99;56.89
17593;BME280;8915;51.760;14.300;2022-09-04T13:43:54;101351.66;;;22.94;57.49
17593;BME280;8915;51.760;14.300;2022-09-04T13:46:33;101343.00;;;23.05;58.47
17593;BME280;8915;51.760;14.300;2022-09-04T13:49:02;101353.00;;;23.14;58.05
17593;BME280;8915;51.760;14.300;2022-09-04T13:51:36;101355.56;;;23.16;56.99
17593;BME280;8915;51.760;14.300;2022-09-04T13:54:10;101355.03;;;23.11;56.40
17593;BME280;8915;51.760;14.300;2022-09-04T13:56:41;101357.38;;;23.15;57.00
17593;BME280;8915;51.760;14.300;2022-09-04T13:59:13;101359.13;;;23.02;55.25
17593;BME280;8915;51.760;14.300;2022-09-04T14:01:44;101349.50;;;23.14;56.42
17593;BME280;8915;51.760;14.300;2022-09-04T14:04:16;101349.94;;;23.20;57.02
17593;BME280;8915;51.760;14.300;2022-09-04T14:06:47;101352.50;;;23.22;56.47
17593;BME280;8915;51.760;14.300;2022-09-04T14:09:16;101341.88;;;23.22;59.07
17593;BME280;8915;51.760;14.300;2022-09-04T14:12:10;101347.59;;;23.16;55.58
17593;BME280;8915;51.760;14.300;2022-09-04T14:15:19;101352.69;;;23.06;56.38
17593;BME280;8915;51.760;14.300;2022-09-04T14:18:00;101354.19;;;23.10;56.36
17593;BME280;8915;51.760;14.300;2022-09-04T14:20:42;101344.78;;;23.04;55.94
17593;BME280;8915;51.760;14.300;2022-09-04T14:23:18;101356.75;;;23.12;58.06
17593;BME280;8915;51.760;14.300;2022-09-04T14:25:51;101357.47;;;23.14;56.19
17593;BME280;8915;51.760;14.300;2022-09-04T14:28:26;101363.97;;;23.10;55.33
17593;BME280;8915;51.760;14.300;2022-09-04T14:31:00;101361.78;;;23.02;55.75
17593;BME280;8915;51.760;14.300;2022-09-04T14:33:36;101354.78;;;23.01;56.92
17593;BME280;8915;51.760;14.300;2022-09-04T14:36:16;101356.47;;;23.02;56.77
17593;BME280;8915;51.760;14.300;2022-09-04T14:38:57;101359.22;;;23.00;55.56
17593;BME280;8915;51.760;14.300;2022-09-04T14:41:40;101358.28;;;23.01;55.71
17593;BME280;8915;51.760;14.300;2022-09-04T14:44:17;101359.31;;;22.99;55.19
17593;BME280;8915;51.760;14.300;2022-09-04T14:46:54;101366.09;;;22.90;54.07
17593;BME280;8915;51.760;14.300;2022-09-04T14:49:25;101375.16;;;22.87;54.18